Time;durP1;ratioP1;P1;durP2;ratioP2;P2;SDS_P1;SDS_P2;PMS_P1;PMS_P2;Temp;Humidity;BMP_temperature;BMP_pressure;BME280_temperature;BME280_humidity;BME280_pressure;Samples;Min_cycle;Max_cycle;Signal;HPM_P1;HPM_P2
2023/03/25 00:01:12;;;;;;;0.77;0.70;;;;;;;7.01;100.00;99226.84;5044332;28;20224;-60
2023/03/25 00:03:42;;;;;;;1.20;0.67;;;;;;;7.06;100.00;99218.94;5071147;28;20193;-63
2023/03/25 00:06:09;;;;;;;1.67;0.73;;;;;;;7.01;100.00;99228.56;5069065;28;20234;-60
2023/03/25 00:08:35;;;;;;;0.50;0.50;;;;;;;6.90;100.00;99235.06;5065154;28;20247;-59
2023/03/25 00:11:03;;;;;;;1.30;0.70;;;;;;;6.90;100.00;99237.63;5060257;28;20223;-60
2023/03/25 00:13:30;;;;;;;0.87;0.50;;;;;;;6.94;100.00;99233.19;5070433;28;20188;-61
2023/03/25 00:15:58;;;;;;;3.50;0.50;;;;;;;6.81;100.00;99235.56;5048290;28;20576;-60
2023/03/25 00:18:28;;;;;;;1.83;0.80;;;;;;;6.83;100.00;99240.59;5066996;28;20196;-60
2023/03/25 00:20:55;;;;;;;0.83;0.77;;;;;;;6.79;100.00;99235.63;5056719;28;20706;-60
2023/03/25 00:23:21;;;;;;;2.57;0.70;;;;;;;6.75;100.00;99234.16;5064203;28;20222;-60
2023/03/25 00:25:51;;;;;;;0.97;0.70;;;;;;;6.78;100.00;99243.38;5053899;28;20185;-59
2023/03/25 00:28:16;;;;;;;2.10;0.93;;;;;;;6.87;100.00;99236.97;5055916;28;20212;-59
2023/03/25 00:30:43;;;;;;;1.23;0.60;;;;;;;6.84;100.00;99250.75;5023975;28;20261;-60
2023/03/25 00:33:09;;;;;;;0.63;0.60;;;;;;;6.81;100.00;99245.81;5055462;28;20219;-60
2023/03/25 00:35:44;;;;;;;1.77;1.00;;;;;;;6.91;100.00;99251.25;5055189;28;20262;-60
2023/03/25 00:38:10;;;;;;;1.33;0.80;;;;;;;6.86;100.00;99246.38;5056719;28;20188;-60
2023/03/25 00:40:35;;;;;;;1.07;0.80;;;;;;;6.94;100.00;99243.41;5046337;28;20256;-60
2023/03/25 00:43:03;;;;;;;1.40;1.13;;;;;;;7.04;100.00;99243.75;5067534;28;20219;-59
2023/03/25 00:45:29;;;;;;;0.80;0.63;;;;;;;7.12;100.00;99254.41;5050865;28;20173;-62
2023/03/25 00:47:54;;;;;;;2.20;0.60;;;;;;;7.16;100.00;99244.84;5055456;28;20546;-59
2023/03/25 00:50:20;;;;;;;1.47;0.70;;;;;;;7.14;100.00;99233.84;5046862;28;20217;-60
2023/03/25 00:52:46;;;;;;;2.53;0.80;;;;;;;7.20;100.00;99242.00;5065917;28;20170;-60
2023/03/25 00:55:11;;;;;;;0.93;0.93;;;;;;;7.20;100.00;99233.50;5056688;28;20186;-60
2023/03/25 00:57:37;;;;;;;1.93;0.93;;;;;;;7.15;100.00;99226.09;5054566;28;20181;-60
2023/03/25 01:00:08;;;;;;;1.80;0.80;;;;;;;7.10;100.00;99226.31;5053021;28;20190;-59
2023/03/25 01:02:33;;;;;;;3.90;0.93;;;;;;;7.12;100.00;99226.25;5053024;28;20268;-62
2023/03/25 01:04:59;;;;;;;2.87;0.93;;;;;;;7.10;100.00;99226.31;5054483;28;20268;-61
2023/03/25 01:07:28;;;;;;;3.13;0.60;;;;;;;7.05;100.00;99230.06;5056908;28;20187;-60
2023/03/25 01:09:53;;;;;;;2.77;0.93;;;;;;;6.98;100.00;99226.16;5060536;28;20287;-60
2023/03/25 01:12:18;;;;;;;2.60;0.80;;;;;;;7.00;100.00;99226.94;5057681;28;20232;-63
2023/03/25 01:14:44;;;;;;;1.27;0.97;;;;;;;7.06;100.00;99231.72;5056103;28;20292;-61
2023/03/25 01:17:10;;;;;;;1.97;1.00;;;;;;;7.13;100.00;99227.88;5064726;28;20657;-60
2023/03/25 01:19:35;;;;;;;2.97;0.90;;;;;;;7.23;100.00;99239.28;5062008;28;20185;-59
2023/03/25 01:22:00;;;;;;;2.30;1.03;;;;;;;7.27;100.00;99227.97;5056372;28;20656;-59
2023/03/25 01:24:26;;;;;;;4.63;2.13;;;;;;;7.41;100.00;99234.88;5059316;28;20182;-58
2023/03/25 01:26:51;;;;;;;1.37;0.87;;;;;;;7.37;100.00;99235.16;5063002;28;20184;-62
2023/03/25 01:29:19;;;;;;;2.63;1.00;;;;;;;7.41;100.00;99231.50;5052141;28;20174;-60
2023/03/25 01:31:44;;;;;;;2.10;1.10;;;;;;;7.43;100.00;99229.69;5054400;28;20220;-62
2023/03/25 01:34:11;;;;;;;3.10;1.30;;;;;;;7.53;100.00;99230.00;5064579;28;20659;-60
2023/03/25 01:36:38;;;;;;;3.03;0.90;;;;;;;7.39;100.00;99221.38;5069641;28;20577;-61
2023/03/25 01:39:05;;;;;;;1.10;0.83;;;;;;;7.34;100.00;99222.53;5063024;28;20192;-60
2023/03/25 01:41:33;;;;;;;1.97;1.40;;;;;;;7.54;100.00;99217.13;5067916;28;20224;-62
2023/03/25 01:44:06;;;;;;;2.57;1.13;;;;;;;7.49;100.00;99208.03;5063443;28;20195;-61
2023/03/25 01:46:32;;;;;;;2.83;1.30;;;;;;;7.56;100.00;99211.91;5068206;28;20184;-61
2023/03/25 01:49:00;;;;;;;2.13;1.20;;;;;;;7.49;100.00;99215.72;5069500;28;20181;-61
2023/03/25 01:51:29;;;;;;;3.67;1.43;;;;;;;7.70;100.00;99211.13;5062491;28;20260;-60
2023/03/25 01:53:55;;;;;;;2.57;1.27;;;;;;;7.59;100.00;99212.56;5073648;28;20185;-62
2023/03/25 01:56:30;;;;;;;5.83;1.60;;;;;;;7.75;100.00;99216.81;5065175;28;20544;-60
2023/03/25 01:58:58;;;;;;;3.07;1.30;;;;;;;7.66;100.00;99201.97;5064409;28;20176;-62
2023/03/25 02:01:25;;;;;;;4.70;1.70;;;;;;;7.78;100.00;99195.31;5054361;28;20329;-61
2023/03/25 02:03:53;;;;;;;4.17;1.70;;;;;;;7.75;100.00;99194.59;5074668;28;20189;-60
2023/03/25 02:06:25;;;;;;;3.73;1.40;;;;;;;7.83;100.00;99183.91;5072584;28;20304;-60
2023/03/25 02:08:53;;;;;;;6.37;1.67;;;;;;;7.98;100.00;99182.19;5073643;28;20220;-60
2023/03/25 02:11:19;;;;;;;5.07;1.53;;;;;;;7.94;100.00;99178.19;5065358;28;20244;-60
2023/03/25 02:13:45;;;;;;;2.97;1.33;;;;;;;7.93;100.00;99162.91;5079057;28;20184;-68
2023/03/25 02:16:31;;;;;;;6.30;1.80;;;;;;;7.95;100.00;99161.06;5059056;28;20615;-60
2023/03/25 02:19:25;;;;;;;3.57;1.47;;;;;;;7.95;100.00;99161.91;5073984;28;20180;-60
2023/03/25 02:22:03;;;;;;;6.23;2.23;;;;;;;7.97;100.00;99157.50;5065187;28;20223;-63
2023/03/25 02:25:10;;;;;;;4.07;1.53;;;;;;;7.97;100.00;99154.94;5072137;28;20192;-60
2023/03/25 02:28:03;;;;;;;1.80;1.10;;;;;;;7.89;100.00;99145.16;5072194;28;20203;-62
2023/03/25 02:30:35;;;;;;;5.37;1.37;;;;;;;7.96;100.00;99145.59;5072526;28;20292;-61
2023/03/25 02:33:28;;;;;;;5.10;1.30;;;;;;;7.87;100.00;99144.41;5058422;28;20238;-61
2023/03/25 02:36:18;;;;;;;4.30;1.40;;;;;;;7.93;100.00;99147.56;5071934;28;20177;-61
2023/03/25 02:38:56;;;;;;;2.20;1.60;;;;;;;7.90;100.00;99128.88;5073318;28;20200;-61
2023/03/25 02:41:49;;;;;;;3.13;1.50;;;;;;;7.93;100.00;99130.44;5074735;28;20303;-60
2023/03/25 02:44:33;;;;;;;3.03;0.90;;;;;;;7.86;100.00;99127.44;5068928;28;20192;-61
2023/03/25 02:47:04;;;;;;;3.60;1.10;;;;;;;7.86;100.00;99124.03;5069915;28;20184;-59
2023/03/25 02:49:40;;;;;;;5.07;1.40;;;;;;;7.78;100.00;99137.28;5061896;28;20264;-59
2023/03/25 02:52:10;;;;;;;3.20;1.73;;;;;;;7.75;100.00;99143.41;5063369;28;20590;-62
2023/03/25 02:54:38;;;;;;;3.10;1.13;;;;;;;7.77;100.00;99143.31;5071491;28;20214;-61
2023/03/25 02:57:06;;;;;;;4.20;1.30;;;;;;;7.74;100.00;99141.75;5071596;28;20207;-59
2023/03/25 02:59:37;;;;;;;1.63;1.03;;;;;;;7.80;100.00;99132.06;5070495;28;20177;-60
2023/03/25 03:02:06;;;;;;;1.97;1.00;;;;;;;7.84;100.00;99128.41;5063783;28;20231;-60
2023/03/25 03:04:32;;;;;;;2.97;0.80;;;;;;;7.67;100.00;99114.84;5062171;28;20633;-61
2023/03/25 03:06:57;;;;;;;3.57;1.10;;;;;;;7.73;100.00;99123.94;5070680;28;20215;-60
2023/03/25 03:09:45;;;;;;;5.63;1.27;;;;;;;7.69;100.00;99125.84;5072657;28;20225;-60
2023/03/25 03:12:26;;;;;;;3.17;1.17;;;;;;;7.75;100.00;99137.44;5062537;28;20239;-60
2023/03/25 03:15:17;;;;;;;3.23;1.23;;;;;;;7.71;100.00;99131.69;5062180;28;20182;-60
2023/03/25 03:17:57;;;;;;;1.63;0.80;;;;;;;7.67;100.00;99127.66;5070717;28;20705;-60
2023/03/25 03:20:31;;;;;;;1.73;1.03;;;;;;;7.49;100.00;99131.28;5051280;28;20221;-60
2023/03/25 03:23:09;;;;;;;2.50;1.10;;;;;;;7.44;100.00;99134.09;5083970;28;20179;-61
2023/03/25 03:26:00;;;;;;;2.50;1.30;;;;;;;7.35;100.00;99137.19;5072297;28;20180;-60
2023/03/25 03:28:58;;;;;;;1.90;1.07;;;;;;;7.46;100.00;99146.81;5070866;28;20184;-63
2023/03/25 03:31:35;;;;;;;2.20;1.23;;;;;;;7.43;100.00;99143.50;5064338;28;20234;-60
2023/03/25 03:34:13;;;;;;;2.60;0.90;;;;;;;7.37;100.00;99148.16;5058071;28;20210;-61
2023/03/25 03:36:47;;;;;;;1.30;1.10;;;;;;;7.39;100.00;99152.28;5072148;28;20219;-61
2023/03/25 03:39:27;;;;;;;3.00;1.43;;;;;;;7.43;100.00;99166.53;5071235;28;20265;-61
2023/03/25 03:42:02;;;;;;;4.53;1.30;;;;;;;7.44;100.00;99162.25;5076208;28;20690;-59
2023/03/25 03:44:34;;;;;;;1.80;1.20;;;;;;;7.50;100.00;99174.69;5070352;28;20179;-60
2023/03/25 03:47:10;;;;;;;2.03;1.00;;;;;;;7.59;100.00;99174.19;5070942;28;20188;-59
2023/03/25 03:49:39;;;;;;;1.60;1.03;;;;;;;7.61;100.00;99178.38;5072095;28;20216;-59
2023/03/25 03:52:16;;;;;;;2.10;1.30;;;;;;;7.64;100.00;99185.88;5062984;28;20219;-60
2023/03/25 03:54:47;;;;;;;2.07;1.43;;;;;;;7.67;100.00;99188.28;5070361;28;20575;-61
2023/03/25 03:57:28;;;;;;;3.33;1.30;;;;;;;7.64;100.00;99191.00;5070327;28;20173;-60
2023/03/25 04:00:05;;;;;;;1.77;1.03;;;;;;;7.63;100.00;99199.59;5071886;28;20172;-60
2023/03/25 04:02:40;;;;;;;1.53;1.30;;;;;;;7.59;100.00;99198.94;5012918;28;20229;-61
2023/03/25 04:05:10;;;;;;;2.70;1.37;;;;;;;7.62;100.00;99197.97;5050598;28;20177;-60
2023/03/25 04:08:01;;;;;;;2.80;1.37;;;;;;;7.68;100.00;99202.72;5051407;28;20193;-62
2023/03/25 04:10:38;;;;;;;1.77;1.10;;;;;;;7.66;100.00;99205.34;5047098;28;20358;-61
2023/03/25 04:13:09;;;;;;;3.63;1.10;;;;;;;7.72;100.00;99210.13;5069440;28;20188;-61
2023/03/25 04:15:36;;;;;;;4.57;1.20;;;;;;;7.79;100.00;99209.78;5049738;28;20339;-63
2023/03/25 04:18:02;;;;;;;2.60;0.97;;;;;;;7.83;100.00;99214.63;5070245;28;20214;-61
2023/03/25 04:20:33;;;;;;;2.40;1.10;;;;;;;7.76;100.00;99218.47;5064387;28;20255;-61
2023/03/25 04:22:59;;;;;;;2.10;1.13;;;;;;;7.75;100.00;99214.25;5082663;28;20382;-61
2023/03/25 04:25:24;;;;;;;2.10;1.17;;;;;;;7.72;100.00;99219.56;5071531;28;21077;-60
2023/03/25 04:27:57;;;;;;;1.77;0.90;;;;;;;7.83;100.00;99224.06;5070296;28;20315;-61
2023/03/25 04:30:24;;;;;;;2.63;1.40;;;;;;;7.69;100.00;99218.00;5041859;28;20279;-59
2023/03/25 04:32:50;;;;;;;1.73;1.20;;;;;;;7.86;100.00;99221.31;5073541;28;20192;-59
2023/03/25 04:35:18;;;;;;;2.30;1.20;;;;;;;7.81;100.00;99218.22;5071554;28;20678;-61
2023/03/25 04:37:44;;;;;;;2.87;1.30;;;;;;;7.88;100.00;99230.56;5064375;28;20339;-60
2023/03/25 04:40:17;;;;;;;3.40;1.30;;;;;;;7.71;100.00;99223.84;5054371;28;20237;-61
2023/03/25 04:42:45;;;;;;;2.57;1.10;;;;;;;7.75;100.00;99230.44;5069439;28;20290;-61
2023/03/25 04:45:13;;;;;;;3.07;1.30;;;;;;;7.56;100.00;99227.28;5069770;28;20327;-63
2023/03/25 04:47:43;;;;;;;1.63;1.10;;;;;;;7.66;100.00;99230.94;5070243;28;20177;-60
2023/03/25 04:50:17;;;;;;;2.40;1.00;;;;;;;7.66;100.00;99223.28;5061770;28;20184;-61
2023/03/25 04:52:43;;;;;;;2.47;1.03;;;;;;;7.64;100.00;99225.13;5069485;28;20180;-59
2023/03/25 04:55:10;;;;;;;3.37;1.13;;;;;;;7.64;100.00;99224.28;5068783;28;20267;-59
2023/03/25 04:57:35;;;;;;;3.07;1.10;;;;;;;7.70;100.00;99231.59;5059027;28;20225;-61
2023/03/25 05:00:01;;;;;;;4.27;1.40;;;;;;;7.74;100.00;99227.97;5071587;28;20563;-60
2023/03/25 05:02:26;;;;;;;2.27;1.20;;;;;;;7.65;100.00;99226.75;5075618;28;20224;-60
2023/03/25 05:04:52;;;;;;;3.67;1.10;;;;;;;7.71;100.00;99228.13;5071156;28;20181;-59
2023/03/25 05:07:18;;;;;;;2.80;1.10;;;;;;;7.73;100.00;99229.69;5062405;28;20636;-60
2023/03/25 05:09:43;;;;;;;3.63;1.30;;;;;;;7.77;100.00;99235.47;5072596;28;20224;-59
2023/03/25 05:12:10;;;;;;;3.70;1.20;;;;;;;7.77;100.00;99243.16;5079836;28;20239;-60
2023/03/25 05:14:35;;;;;;;3.27;1.40;;;;;;;7.83;100.00;99239.44;5067889;28;20304;-59
2023/03/25 05:17:00;;;;;;;4.30;1.13;;;;;;;7.95;100.00;99243.84;5068574;28;20683;-63
2023/03/25 05:19:27;;;;;;;5.07;1.53;;;;;;;7.94;100.00;99249.03;5074895;28;20180;-60
2023/03/25 05:21:55;;;;;;;5.03;1.60;;;;;;;7.78;100.00;99236.28;5065963;28;20686;-60
2023/03/25 05:24:20;;;;;;;6.10;1.87;;;;;;;7.67;100.00;99247.97;5075436;28;20187;-62
2023/03/25 05:26:45;;;;;;;5.87;2.10;;;;;;;7.51;100.00;99258.22;5074369;28;20184;-62
2023/03/25 05:29:13;;;;;;;4.13;1.50;;;;;;;7.40;100.00;99256.25;5073541;28;20177;-61
2023/03/25 05:31:44;;;;;;;4.00;2.00;;;;;;;7.41;100.00;99267.34;5066185;28;20273;-59
2023/03/25 05:34:09;;;;;;;2.27;1.83;;;;;;;7.26;100.00;99253.66;5076572;28;20276;-60
2023/03/25 05:36:35;;;;;;;5.73;2.00;;;;;;;7.26;100.00;99263.88;5074123;28;20183;-60
2023/03/25 05:39:00;;;;;;;3.47;2.03;;;;;;;7.26;100.00;99269.81;5074464;28;20662;-59
2023/03/25 05:41:49;;;;;;;5.27;1.97;;;;;;;7.37;100.00;99261.56;5074931;28;20250;-60
2023/03/25 05:44:13;;;;;;;3.83;1.53;;;;;;;7.29;100.00;99265.44;5075377;28;20197;-59
2023/03/25 05:46:39;;;;;;;3.70;1.90;;;;;;;7.08;100.00;99260.56;5073953;28;20176;-59
2023/03/25 05:49:04;;;;;;;5.50;2.00;;;;;;;7.20;100.00;99271.88;5074391;28;20196;-59
2023/03/25 05:51:36;;;;;;;2.73;1.40;;;;;;;7.19;100.00;99273.59;5065681;28;20295;-60
2023/03/25 05:54:02;;;;;;;6.50;2.23;;;;;;;7.18;100.00;99279.66;5077395;28;20536;-62
2023/03/25 05:56:28;;;;;;;3.87;1.73;;;;;;;7.23;100.00;99276.81;5072602;28;20603;-59
2023/03/25 05:58:53;;;;;;;2.67;1.50;;;;;;;7.40;100.00;99275.91;5072774;28;20271;-59
2023/03/25 06:01:20;;;;;;;2.33;1.47;;;;;;;7.51;100.00;99280.44;5073313;28;20239;-60
2023/03/25 06:03:46;;;;;;;1.47;1.20;;;;;;;7.46;100.00;99280.69;5072176;28;20185;-62
2023/03/25 06:06:17;;;;;;;2.83;1.20;;;;;;;7.50;100.00;99276.25;5073788;28;20251;-60
2023/03/25 06:08:48;;;;;;;1.57;1.00;;;;;;;7.49;100.00;99270.31;5072432;28;20228;-61
2023/03/25 06:11:15;;;;;;;1.70;1.00;;;;;;;7.67;100.00;99276.13;5042525;28;20228;-60
2023/03/25 06:13:41;;;;;;;1.50;1.00;;;;;;;7.72;100.00;99281.81;5066994;28;20185;-61
2023/03/25 06:16:12;;;;;;;1.53;0.70;;;;;;;7.87;100.00;99271.63;5057686;28;20196;-60
2023/03/25 06:18:38;;;;;;;2.90;0.90;;;;;;;7.94;100.00;99279.78;5075550;28;20180;-60
2023/03/25 06:21:03;;;;;;;1.50;0.73;;;;;;;8.03;100.00;99277.50;5070686;28;20227;-61
2023/03/25 06:23:34;;;;;;;1.80;1.43;;;;;;;8.09;100.00;99278.91;5081245;28;20187;-61
2023/03/25 06:25:59;;;;;;;2.87;1.30;;;;;;;8.04;100.00;99274.03;5072339;28;20172;-60
2023/03/25 06:28:25;;;;;;;2.50;1.10;;;;;;;7.99;100.00;99281.16;5073788;28;20192;-61
2023/03/25 06:30:50;;;;;;;4.47;1.40;;;;;;;8.24;100.00;99274.63;5061544;28;20227;-60
2023/03/25 06:33:18;;;;;;;2.50;1.30;;;;;;;8.25;100.00;99278.84;5076214;28;20275;-62
2023/03/25 06:35:48;;;;;;;2.90;1.30;;;;;;;8.35;100.00;99269.72;5073287;28;20188;-59
2023/03/25 06:38:14;;;;;;;4.53;1.60;;;;;;;8.49;100.00;99263.78;5071931;28;20192;-60
2023/03/25 06:40:39;;;;;;;4.33;1.53;;;;;;;8.51;100.00;99266.28;5067323;28;20239;-60
2023/03/25 06:43:05;;;;;;;3.47;1.63;;;;;;;8.59;100.00;99264.06;5083237;28;20604;-59
2023/03/25 06:45:31;;;;;;;3.23;1.50;;;;;;;8.50;100.00;99273.13;5071847;28;20276;-60
2023/03/25 06:47:56;;;;;;;3.20;1.40;;;;;;;8.73;100.00;99270.94;5071712;28;20218;-61
2023/03/25 06:50:21;;;;;;;4.80;1.80;;;;;;;9.09;100.00;99258.53;5064407;28;20875;-60
2023/03/25 06:52:46;;;;;;;2.63;1.50;;;;;;;9.56;100.00;99259.84;5086205;28;20192;-60
2023/03/25 06:55:12;;;;;;;4.37;1.30;;;;;;;10.15;100.00;99261.22;5072432;28;20189;-59
2023/03/25 06:57:37;;;;;;;5.67;1.70;;;;;;;11.19;100.00;99260.19;5073045;28;20195;-59
2023/03/25 07:00:05;;;;;;;2.50;1.60;;;;;;;12.33;100.00;99264.00;5069735;28;20225;-60
2023/03/25 07:02:30;;;;;;;4.37;1.20;;;;;;;13.81;100.00;99266.34;5087203;28;20219;-60
2023/03/25 07:04:55;;;;;;;3.40;1.30;;;;;;;14.88;95.01;99271.28;5059522;28;20188;-63
2023/03/25 07:07:21;;;;;;;3.63;1.43;;;;;;;15.95;83.23;99268.00;5073006;28;20353;-61
2023/03/25 07:09:50;;;;;;;2.83;1.40;;;;;;;15.88;81.48;99266.91;5072502;28;20232;-60
2023/03/25 07:12:15;;;;;;;4.67;1.87;;;;;;;16.46;79.30;99263.34;5061857;28;20231;-60
2023/03/25 07:14:41;;;;;;;2.83;1.37;;;;;;;17.31;73.12;99266.78;5064293;28;20256;-61
2023/03/25 07:17:07;;;;;;;4.23;2.00;;;;;;;16.75;71.48;99253.81;5066711;28;20207;-61
2023/03/25 07:19:32;;;;;;;4.93;1.80;;;;;;;14.61;89.20;99256.31;5071407;28;20218;-61
2023/03/25 07:21:57;;;;;;;7.10;1.73;;;;;;;13.35;100.00;99260.53;5076297;28;20234;-60
2023/03/25 07:24:23;;;;;;;6.20;2.17;;;;;;;13.63;100.00;99251.41;5073302;28;20184;-59
2023/03/25 07:26:48;;;;;;;8.20;1.90;;;;;;;15.20;88.42;99252.13;5070987;28;20221;-61
2023/03/25 07:29:13;;;;;;;6.17;1.80;;;;;;;14.62;90.01;99245.81;5071393;28;20207;-60
2023/03/25 07:31:39;;;;;;;4.80;1.70;;;;;;;15.22;84.85;99258.00;5064623;28;20293;-60
2023/03/25 07:34:07;;;;;;;4.63;1.83;;;;;;;14.66;87.47;99257.59;5064867;28;20185;-59
2023/03/25 07:36:32;;;;;;;5.43;2.50;;;;;;;15.90;82.73;99252.03;5070663;28;20207;-59
2023/03/25 07:38:57;;;;;;;4.33;1.70;;;;;;;16.82;72.61;99259.25;5072084;28;20635;-59
2023/03/25 07:41:23;;;;;;;6.23;1.90;;;;;;;16.98;67.25;99263.84;5072335;28;20219;-59
2023/03/25 07:43:48;;;;;;;7.13;2.13;;;;;;;17.55;63.01;99268.78;5077143;28;20185;-60
2023/03/25 07:46:13;;;;;;;6.30;1.93;;;;;;;18.11;59.84;99268.59;5071797;28;20263;-61
2023/03/25 07:48:40;;;;;;;7.83;2.40;;;;;;;16.87;66.27;99254.41;5061371;28;20403;-59
2023/03/25 07:51:05;;;;;;;7.63;2.07;;;;;;;15.13;82.20;99258.81;5062174;28;20310;-59
2023/03/25 07:53:31;;;;;;;7.63;2.50;;;;;;;14.72;88.74;99263.19;5078814;28;20211;-61
2023/03/25 07:55:56;;;;;;;8.80;2.17;;;;;;;14.80;91.13;99261.59;5072020;28;20654;-62
2023/03/25 07:58:21;;;;;;;9.53;2.47;;;;;;;14.81;91.79;99259.81;5071432;28;20192;-61
2023/03/25 08:00:46;;;;;;;10.50;2.70;;;;;;;13.81;96.54;99267.16;5046184;28;20256;-59
2023/03/25 08:03:13;;;;;;;9.13;2.57;;;;;;;13.72;98.12;99265.34;5070083;28;20306;-60
2023/03/25 08:05:45;;;;;;;8.10;2.67;;;;;;;13.19;98.23;99261.72;5069416;28;20259;-60
2023/03/25 08:08:10;;;;;;;7.90;3.20;;;;;;;13.03;100.00;99254.34;5069677;28;20224;-59
2023/03/25 08:10:36;;;;;;;10.53;2.67;;;;;;;12.75;100.00;99260.84;5065142;28;20232;-62
2023/03/25 08:13:01;;;;;;;11.07;3.10;;;;;;;12.50;100.00;99264.47;5082234;28;20230;-59
2023/03/25 08:15:26;;;;;;;10.60;2.90;;;;;;;12.22;100.00;99269.97;5050692;28;20279;-60
2023/03/25 08:17:52;;;;;;;11.20;3.00;;;;;;;11.71;100.00;99271.09;5084451;28;20706;-58
2023/03/25 08:20:17;;;;;;;9.93;2.57;;;;;;;11.72;100.00;99265.00;5062757;28;20172;-60
2023/03/25 08:22:44;;;;;;;7.50;2.57;;;;;;;11.44;100.00;99266.97;5084779;28;20246;-59
2023/03/25 08:25:09;;;;;;;8.20;2.33;;;;;;;11.38;100.00;99256.31;5070043;28;20186;-60
2023/03/25 08:27:34;;;;;;;9.70;2.97;;;;;;;11.35;100.00;99261.66;5071482;28;20181;-58
2023/03/25 08:30:00;;;;;;;8.77;2.90;;;;;;;11.21;100.00;99257.50;5071056;28;20176;-61
2023/03/25 08:32:27;;;;;;;13.80;3.17;;;;;;;11.32;100.00;99267.03;5002492;28;20221;-58
2023/03/25 08:34:53;;;;;;;9.83;3.03;;;;;;;11.17;100.00;99263.81;5070163;28;20185;-60
2023/03/25 08:37:18;;;;;;;11.37;2.53;;;;;;;11.27;100.00;99267.38;5059506;28;20181;-59
2023/03/25 08:39:44;;;;;;;9.47;2.43;;;;;;;11.41;100.00;99251.75;5071190;28;20184;-62
2023/03/25 08:42:11;;;;;;;9.13;2.40;;;;;;;11.66;100.00;99251.72;5076024;28;20364;-60
2023/03/25 08:44:37;;;;;;;10.90;2.80;;;;;;;11.32;100.00;99243.88;5071256;28;20177;-60
2023/03/25 08:47:03;;;;;;;13.97;3.20;;;;;;;11.45;100.00;99247.22;5075549;28;20671;-59
2023/03/25 08:49:28;;;;;;;9.80;2.47;;;;;;;11.47;100.00;99232.47;5075353;28;20888;-60
2023/03/25 08:51:56;;;;;;;10.63;3.00;;;;;;;11.42;100.00;99239.69;5078171;28;20215;-62
2023/03/25 08:54:22;;;;;;;10.63;2.43;;;;;;;11.55;100.00;99244.81;5060433;28;20197;-61
2023/03/25 08:56:47;;;;;;;8.87;2.60;;;;;;;11.45;100.00;99235.16;5075491;28;20259;-59
2023/03/25 08:59:12;;;;;;;8.03;2.27;;;;;;;11.38;100.00;99233.94;5074491;28;20191;-59
2023/03/25 09:01:38;;;;;;;6.77;1.93;;;;;;;11.47;100.00;99235.03;5077111;28;20224;-59
2023/03/25 09:04:03;;;;;;;8.47;2.70;;;;;;;11.67;100.00;99232.78;5077916;28;20196;-59
2023/03/25 09:06:28;;;;;;;6.63;2.00;;;;;;;11.95;100.00;99229.00;5074880;28;20172;-59
2023/03/25 09:08:54;;;;;;;7.77;2.80;;;;;;;11.96;100.00;99228.09;5075230;28;20213;-59
2023/03/25 09:11:20;;;;;;;10.27;3.10;;;;;;;12.20;100.00;99222.03;5073952;28;20227;-59
2023/03/25 09:13:45;;;;;;;4.83;2.20;;;;;;;12.04;100.00;99220.59;5079714;28;20551;-60
2023/03/25 09:16:11;;;;;;;13.67;3.37;;;;;;;12.21;100.00;99221.91;5062180;28;20215;-61
2023/03/25 09:18:36;;;;;;;6.33;2.20;;;;;;;11.84;100.00;99211.75;5074534;28;20188;-64
2023/03/25 09:21:02;;;;;;;10.40;2.87;;;;;;;11.74;100.00;99216.75;5059500;28;20220;-60
2023/03/25 09:23:28;;;;;;;9.23;2.57;;;;;;;11.49;100.00;99214.34;5072843;28;20173;-59
2023/03/25 09:25:53;;;;;;;6.20;2.10;;;;;;;11.49;100.00;99212.56;5074791;28;20177;-59
2023/03/25 09:28:19;;;;;;;8.97;2.60;;;;;;;11.64;100.00;99218.38;5074619;28;20496;-59
2023/03/25 09:30:44;;;;;;;6.30;2.37;;;;;;;11.93;100.00;99228.28;5069439;28;20286;-59
2023/03/25 09:33:10;;;;;;;6.00;2.47;;;;;;;11.83;100.00;99259.06;5084799;28;20261;-59
2023/03/25 09:35:38;;;;;;;5.27;1.80;;;;;;;11.10;100.00;99291.72;5074675;28;20261;-61
2023/03/25 09:38:04;;;;;;;4.30;1.30;;;;;;;10.38;100.00;99277.72;5073220;28;20535;-60
2023/03/25 09:40:30;;;;;;;2.43;0.97;;;;;;;9.12;100.00;99294.28;5053929;28;20234;-60
2023/03/25 09:43:03;;;;;;;3.23;1.00;;;;;;;8.53;100.00;99313.13;5086259;28;20176;-61
2023/03/25 09:45:38;;;;;;;2.20;0.93;;;;;;;8.72;100.00;99312.91;5061524;28;20191;-60
2023/03/25 09:48:17;;;;;;;6.53;1.43;;;;;;;8.95;100.00;99315.81;5074299;28;20184;-61
2023/03/25 09:50:45;;;;;;;5.33;1.20;;;;;;;8.98;100.00;99338.69;5065044;28;20228;-60
2023/03/25 09:53:39;;;;;;;0.70;0.70;;;;;;;8.59;100.00;99329.91;5072282;28;20173;-61
2023/03/25 09:56:10;;;;;;;2.17;0.90;;;;;;;8.25;100.00;99324.97;5036285;28;20197;-60
2023/03/25 09:58:45;;;;;;;3.10;0.80;;;;;;;7.97;100.00;99303.47;5074230;28;20176;-60
2023/03/25 10:01:29;;;;;;;0.70;0.70;;;;;;;7.75;100.00;99304.69;5064146;28;20220;-60
2023/03/25 10:04:31;;;;;;;1.73;0.70;;;;;;;7.82;100.00;99320.53;5072198;28;20577;-62
2023/03/25 10:07:08;;;;;;;2.33;0.60;;;;;;;7.85;100.00;99315.25;5065988;28;20552;-60
2023/03/25 10:09:40;;;;;;;1.23;0.53;;;;;;;8.98;100.00;99305.34;5072468;28;20220;-59
2023/03/25 10:12:41;;;;;;;2.60;0.90;;;;;;;11.36;100.00;99307.94;5078445;28;20227;-60
2023/03/25 10:15:37;;;;;;;0.90;0.70;;;;;;;14.21;99.62;99309.63;5054826;28;20185;-60
2023/03/25 10:18:28;;;;;;;1.07;0.50;;;;;;;14.10;94.09;99307.09;5061542;28;20177;-60
2023/03/25 10:21:16;;;;;;;1.47;0.90;;;;;;;12.82;100.00;99305.88;5062948;28;20223;-60
2023/03/25 10:23:51;;;;;;;1.60;0.67;;;;;;;13.50;100.00;99308.41;5071793;28;20563;-60
2023/03/25 10:26:27;;;;;;;1.93;0.80;;;;;;;14.08;90.96;99302.06;5073709;28;20183;-62
2023/03/25 10:29:00;;;;;;;2.07;0.83;;;;;;;16.62;81.46;99293.91;5072348;28;20179;-61
2023/03/25 10:31:30;;;;;;;1.57;0.93;;;;;;;17.39;75.47;99298.88;5065180;28;20236;-60
2023/03/25 10:34:01;;;;;;;1.43;0.60;;;;;;;17.57;61.86;99300.66;5077235;28;20180;-59
2023/03/25 10:36:37;;;;;;;2.67;0.90;;;;;;;17.04;68.98;99295.25;5071819;28;20176;-60
2023/03/25 10:39:10;;;;;;;1.10;0.83;;;;;;;15.87;78.32;99309.34;5061715;28;20203;-59
2023/03/25 10:41:38;;;;;;;3.50;1.10;;;;;;;14.87;85.91;99298.13;5064359;28;20235;-60
2023/03/25 10:44:08;;;;;;;3.73;0.80;;;;;;;13.86;96.74;99293.47;5071645;28;20215;-59
2023/03/25 10:46:47;;;;;;;3.03;1.10;;;;;;;13.31;98.65;99303.00;5073165;28;20184;-60
2023/03/25 10:49:16;;;;;;;4.27;1.43;;;;;;;12.89;99.83;99296.75;5072008;28;20207;-60
2023/03/25 10:51:42;;;;;;;3.30;1.33;;;;;;;12.80;100.00;99286.28;5075647;28;20224;-62
2023/03/25 10:54:12;;;;;;;4.20;1.30;;;;;;;12.50;100.00;99304.00;5071726;28;20172;-60
2023/03/25 10:56:49;;;;;;;4.67;1.57;;;;;;;12.06;99.52;99296.06;5071487;28;20196;-58
2023/03/25 10:59:28;;;;;;;4.10;1.57;;;;;;;12.11;100.00;99296.53;5071720;28;20258;-59
2023/03/25 11:01:55;;;;;;;3.57;1.10;;;;;;;12.14;100.00;99286.94;5063939;28;20678;-60
2023/03/25 11:04:26;;;;;;;3.97;1.43;;;;;;;12.18;100.00;99284.03;5070894;28;20196;-59
2023/03/25 11:06:56;;;;;;;4.13;1.60;;;;;;;12.38;100.00;99281.72;5070916;28;20184;-57
2023/03/25 11:09:29;;;;;;;3.50;1.10;;;;;;;12.69;100.00;99275.03;5064887;28;20722;-56
2023/03/25 11:11:58;;;;;;;5.60;1.77;;;;;;;12.62;93.97;99271.28;5064482;28;20229;-57
2023/03/25 11:14:26;;;;;;;5.10;1.60;;;;;;;12.62;94.51;99276.44;5069276;28;20198;-57
2023/03/25 11:17:08;;;;;;;3.93;1.30;;;;;;;12.64;91.09;99266.84;5072825;28;20189;-56
2023/03/25 11:19:58;;;;;;;7.50;1.93;;;;;;;12.73;93.29;99266.13;5060508;28;20181;-57
2023/03/25 11:22:27;;;;;;;2.90;1.20;;;;;;;12.84;81.53;99267.06;5076913;28;20594;-57
2023/03/25 11:24:59;;;;;;;5.10;1.20;;;;;;;12.73;82.10;99258.38;5061727;28;20655;-58
2023/03/25 11:27:27;;;;;;;4.03;1.50;;;;;;;12.81;81.50;99262.94;5072168;28;20176;-57
2023/03/25 11:29:58;;;;;;;4.70;1.50;;;;;;;13.03;81.16;99266.47;5072274;28;20192;-57
2023/03/25 11:32:38;;;;;;;3.30;1.13;;;;;;;12.88;71.56;99269.28;5076850;28;20273;-57
2023/03/25 11:35:21;;;;;;;2.53;1.10;;;;;;;12.97;78.91;99272.09;5071823;28;20207;-57
2023/03/25 11:37:55;;;;;;;4.87;1.30;;;;;;;13.17;74.17;99266.19;5069989;28;20184;-56
2023/03/25 11:40:21;;;;;;;7.30;1.67;;;;;;;13.17;67.75;99273.13;5056629;28;20791;-57
2023/03/25 11:42:55;;;;;;;4.47;1.57;;;;;;;13.25;70.32;99286.25;5084200;28;20201;-57
2023/03/25 11:45:34;;;;;;;2.80;1.40;;;;;;;13.38;68.57;99271.47;5059878;28;20298;-56